Daily Tabular Data
[Select Refresh to Update]


12/12/18
Time         Wind Dir   Wind Spd  Wind Gust     Hum In   Humidity    Temp In       Temp  Raw Barom   Tot Rain Wind Chill Heat Ix In Heat Index  Dew Point  DailyRain   HourRain   RainRate
                            mph        mph          %          %         F         F         in         in         F         F         F         F         in         in      in/hr
12:00am           164          0          4         50         92       67.9       52.7      29.24       3.30       52.7       68.7       58.6       50.4       0.00       0.00      0.000
12:30am           169          0          4         49         94       67.8       52.4      29.24       3.30       52.4       68.5       58.6       50.7       0.00       0.00      0.000
1:00am            166          0          3         50         93       67.7       52.1      29.24       3.30       52.1       68.5       58.2       50.1       0.00       0.00      0.000
1:30am            171          0          4         50         93       67.5       52.4      29.25       3.30       52.4       68.3       58.5       50.4       0.00       0.00      0.000
2:00am            167          0          2         50         92       67.3       51.7      29.25       3.30       51.7       68.1       57.6       49.5       0.00       0.00      0.000
2:30am            167          3          4         50         89       67.3       51.3      29.24       3.30       51.1       68.1       56.8       48.2       0.00       0.00      0.000
3:00am            179          1          5         49         87       67.1       51.1      29.23       3.30       51.1       67.8       56.3       47.4       0.00       0.00      0.000
3:30am            165          0          1         49         88       67.0       50.9      29.23       3.30       50.9       67.7       56.2       47.5       0.00       0.00      0.000
4:00am            175          0          2         49         85       66.8       50.5      29.25       3.30       50.5       67.5       55.4       46.2       0.00       0.00      0.000
4:30am            175          0          0         49         84       66.7       50.6      29.24       3.30       50.6       67.4       55.4       46.0       0.00       0.00      0.000
5:00am            173          0          0         48         85       66.6       50.4      29.23       3.30       50.4       67.2       55.3       46.1       0.00       0.00      0.000
5:30am            162          0          3         48         87       66.5       49.6      29.25       3.30       49.6       67.1       54.8       45.9       0.00       0.00      0.000
6:00am            173          0          0         48         87       66.4       49.8      29.25       3.30       49.8       67.0       55.0       46.1       0.00       0.00      0.000
6:30am            176          0          0         48         87       66.2       50.8      29.26       3.30       50.8       66.8       56.0       47.1       0.00       0.00      0.000
7:00am            193          2          3         49         91       66.1       51.5      29.26       3.30       51.5       66.8       57.3       49.0       0.00       0.00      0.000
7:30am            166          3          4         49         91       66.2       50.4      29.26       3.30       50.1       66.9       56.2       47.9       0.00       0.00      0.000
8:00am            195          1          5         49         92       66.1       54.5      29.27       3.30       54.5       66.8       60.4       52.2       0.00       0.00      0.000
8:30am            192          0          6         48         82       66.1       56.6      29.27       3.30       56.6       66.7       61.1       51.2       0.00       0.00      0.000
9:00am            170          5          7         48         84       66.4       58.5      29.29       3.30       58.2       67.0       63.3       53.7       0.00       0.00      0.000
9:30am            220          2          6         49         83       66.5       59.0      29.29       3.30       59.0       67.2       63.6       53.9       0.00       0.00      0.000
10:00am           207          0          6         49         80       66.7       60.8      29.29       3.30       60.8       67.4       65.0       54.6       0.00       0.00      0.000
10:30am           187          4          8         49         75       66.8       62.3      29.28       3.30       62.3       67.5       65.9       54.3       0.00       0.00      0.000
11:00am           215          3          6         49         72       66.8       64.7      29.28       3.30       64.7       67.5       67.9       55.5       0.00       0.00      0.000
11:30am           183          3         10         49         69       66.9       65.2      29.27       3.30       65.2       67.6       68.0       54.8       0.00       0.00      0.000
12:00pm           179          0         10         48         67       67.0       66.0      29.25       3.30       66.0       67.6       68.6       54.7       0.00       0.00      0.000
12:30pm           306          4          8         49         69       67.1       66.4      29.26       3.30       66.4       67.8       69.2       55.9       0.00       0.00      0.000
1:00pm            267          1          8         49         68       67.3       67.2      29.25       3.30       67.2       68.0       69.9       56.3       0.00       0.00      0.000
1:30pm            119          0          8         49         67       67.4       67.9      29.26       3.30       67.9       68.1       70.5       56.6       0.00       0.00      0.000
2:00pm            302          0          8         49         67       67.5       66.8      29.25       3.30       66.8       68.2       69.4       55.5       0.00       0.00      0.000
2:30pm            219          5          7         49         67       67.6       67.4      29.25       3.30       67.4       68.3       70.0       56.1       0.00       0.00      0.000
3:00pm            182          3          8         49         71       67.8       65.5      29.25       3.30       65.5       68.5       68.6       55.9       0.00       0.00      0.000
3:30pm            189          3          6         49         72       67.9       65.6      29.26       3.30       65.6       68.6       68.8       56.3       0.00       0.00      0.000
4:00pm            238          2          7         49         74       68.0       63.4      29.27       3.30       63.4       68.7       66.8       55.0       0.00       0.00      0.000
4:30pm            209          1          6         49         79       68.0       63.0      29.27       3.30       63.0       68.7       67.1       56.4       0.00       0.00      0.000
5:00pm            195          1          7         50         78       68.1       61.7      29.28       3.30       61.7       68.9       65.7       54.8       0.00       0.00      0.000
5:30pm            199          0          3         51         83       68.0       58.9      29.29       3.30       58.9       68.9       63.5       53.8       0.00       0.00      0.000
6:00pm            198          0          0         51         86       67.9       57.9      29.31       3.30       57.9       68.8       63.0       53.7       0.00       0.00      0.000
6:30pm            198          0          1         51         87       68.0       57.6      29.32       3.30       57.6       68.9       62.8       53.8       0.00       0.00      0.000
7:00pm            182          0          2         50         87       68.0       55.8      29.33       3.30       55.8       68.8       61.0       52.0       0.00       0.00      0.000
7:30pm            182          0          1         50         88       68.0       55.5      29.32       3.30       55.5       68.8       60.8       52.0       0.00       0.00      0.000
8:00pm            133          0          1         50         89       68.0       53.7      29.34       3.30       53.7       68.8       59.2       50.5       0.00       0.00      0.000
8:30pm            161          0          1         50         90       67.9       54.1      29.34       3.30       54.1       68.7       59.7       51.2       0.00       0.00      0.000
9:00pm            175          0          2         50         88       67.9       56.8      29.35       3.30       56.8       68.7       62.1       53.3       0.00       0.00      0.000
9:30pm            173          0          0         50         88       67.8       53.2      29.35       3.30       53.2       68.6       58.5       49.7       0.00       0.00      0.000
10:00pm           115          0          3         50         90       67.7       52.3      29.34       3.30       52.3       68.5       57.9       49.5       0.00       0.00      0.000
10:30pm           160          0          0         50         91       67.6       51.9      29.35       3.30       51.9       68.4       57.7       49.4       0.00       0.00      0.000
11:00pm           163          0          0         50         90       67.5       51.9      29.35       3.30       51.9       68.3       57.5       49.1       0.00       0.00      0.000
11:30pm           155          0          1         50         92       67.4       51.8      29.34       3.30       51.8       68.2       57.7       49.6       0.00       0.00      0.000